FADY

De Aar Military Airport

De Aar, South Africa
METAR FADY 220630Z 04009KT CAVOK 18/03 Q1030
Observed Flight Rules
Oct-22 @ 06:30 UTC (20 hours ago) Visual Flight Rules
Wind Visibility Clouds
40° at 9 knots 10,000+ meters
  • Clear skies
Temperatures Readings
Current 18°C / 64°F
Dewpoint 3°C / 37°F
Humidity 37%
Altimeter 30.41" Hg
Pressure 1030 hPa
Elevation 384
METAR FADY 220630Z 04009KT CAVOK 18/03 Q1030
Observed Flight Rules
Oct-22 @ 06:30 UTC
(20 hours ago)
VFR
Wind Visibility
40° at 9 knots 10,000+ meters
Clouds
  • Clear skies
Temperature Dewpoint
18°C / 64°F 3°C / 37°F
Humidity Altimeter Pressure
37% 30.41" Hg 1030 hPa